createdAt,value
2022-08-11T00:01:21.086Z,22.74
2022-08-11T00:03:53.830Z,22.63
2022-08-11T00:06:33.636Z,22.48
2022-08-11T00:09:07.054Z,22.35
2022-08-11T00:11:43.816Z,22.72
2022-08-11T00:14:18.887Z,22.71
2022-08-11T00:16:55.548Z,22.59
2022-08-11T00:20:12.051Z,22.17
2022-08-11T00:22:12.182Z,21.46
2022-08-11T00:24:53.523Z,22.32
2022-08-11T00:27:37.153Z,22.31
2022-08-11T00:30:13.461Z,22.50
2022-08-11T00:32:44.177Z,22.27
2022-08-11T00:35:54.744Z,22.45
2022-08-11T00:38:06.853Z,22.35
2022-08-11T00:40:45.363Z,22.40
2022-08-11T00:43:40.980Z,22.41
2022-08-11T00:46:25.820Z,22.40
2022-08-11T00:49:16.257Z,22.21
2022-08-11T00:52:06.389Z,22.32
2022-08-11T00:54:38.853Z,22.38
2022-08-11T00:57:37.354Z,22.12
2022-08-11T01:00:16.631Z,21.91
2022-08-11T01:03:20.328Z,21.95
2022-08-11T01:06:14.372Z,21.75
2022-08-11T01:09:06.002Z,21.94
2022-08-11T01:11:35.519Z,21.94
2022-08-11T01:14:36.027Z,22.02
2022-08-11T01:17:26.861Z,21.84
2022-08-11T01:20:45.645Z,21.75
2022-08-11T01:23:09.005Z,20.41
2022-08-11T01:26:02.269Z,21.37
2022-08-11T01:28:55.757Z,21.57
2022-08-11T01:31:28.406Z,21.28
2022-08-11T01:34:13.492Z,21.46
2022-08-11T01:36:39.929Z,21.52
2022-08-11T01:39:33.304Z,21.55
2022-08-11T01:42:35.519Z,21.29
2022-08-11T01:45:31.099Z,20.59
2022-08-11T01:48:09.672Z,21.21
2022-08-11T01:51:16.875Z,21.30
2022-08-11T01:54:05.417Z,21.31
2022-08-11T01:57:09.793Z,21.32
2022-08-11T01:59:48.729Z,21.20
2022-08-11T02:02:47.419Z,21.29
2022-08-11T02:05:51.981Z,21.20
2022-08-11T02:08:33.296Z,20.92
2022-08-11T02:11:31.530Z,20.74
2022-08-11T02:14:13.451Z,20.83
2022-08-11T02:16:57.917Z,20.99
2022-08-11T02:20:04.907Z,21.00
2022-08-11T02:23:58.629Z,20.97
2022-08-11T02:26:50.715Z,21.03
2022-08-11T02:29:33.108Z,20.49
2022-08-11T02:32:45.713Z,20.74
2022-08-11T02:35:12.452Z,20.66
2022-08-11T02:37:53.792Z,20.64
2022-08-11T02:40:38.613Z,20.67
2022-08-11T02:43:18.090Z,20.64
2022-08-11T02:46:05.863Z,20.80
2022-08-11T02:49:06.145Z,20.64
2022-08-11T02:51:33.553Z,20.63
2022-08-11T02:54:21.314Z,20.68
2022-08-11T02:57:11.258Z,20.66
2022-08-11T03:00:00.442Z,20.17
2022-08-11T03:02:32.695Z,19.68
2022-08-11T03:05:16.978Z,19.67
2022-08-11T03:08:02.204Z,19.40
2022-08-11T03:10:36.971Z,18.99
2022-08-11T03:13:34.037Z,19.02
2022-08-11T03:16:37.337Z,19.32
2022-08-11T03:19:31.520Z,19.12
2022-08-11T03:22:19.352Z,19.55
2022-08-11T03:24:54.731Z,19.28
2022-08-11T03:27:30.737Z,19.08
2022-08-11T03:30:06.277Z,19.44
2022-08-11T03:32:41.739Z,19.70
2022-08-11T03:35:11.486Z,19.27
2022-08-11T03:38:06.572Z,18.62
2022-08-11T03:41:04.941Z,18.61
2022-08-11T03:44:19.115Z,18.85
2022-08-11T03:47:10.923Z,18.46
2022-08-11T03:50:02.064Z,18.89
2022-08-11T03:52:49.218Z,18.57
2022-08-11T03:55:44.759Z,19.41
2022-08-11T03:58:17.351Z,19.91
2022-08-11T04:01:17.886Z,19.41
2022-08-11T04:04:23.513Z,18.34
2022-08-11T04:07:12.013Z,18.19
2022-08-11T04:10:25.534Z,18.70
2022-08-11T04:13:06.829Z,18.99
2022-08-11T04:16:11.656Z,18.78
2022-08-11T04:18:44.832Z,18.41
2022-08-11T04:21:48.172Z,18.31
2022-08-11T04:24:39.986Z,18.48
2022-08-11T04:27:36.752Z,18.62
2022-08-11T04:30:12.323Z,19.27
2022-08-11T04:33:03.122Z,18.76
2022-08-11T04:35:47.324Z,18.51
2022-08-11T04:38:44.418Z,18.89
2022-08-11T04:42:04.175Z,18.50
2022-08-11T04:45:01.428Z,18.65
2022-08-11T04:48:10.293Z,18.92
2022-08-11T04:51:16.842Z,18.65
2022-08-11T04:54:53.727Z,18.83
2022-08-11T04:58:00.804Z,18.44
2022-08-11T05:00:56.591Z,19.16
2022-08-11T05:03:43.154Z,19.02
2022-08-11T05:06:09.583Z,19.16
2022-08-11T05:09:23.563Z,19.21
2022-08-11T05:12:09.928Z,18.65
2022-08-11T05:15:06.382Z,18.69
2022-08-11T05:18:19.294Z,18.92
2022-08-11T05:21:14.281Z,19.70
2022-08-11T05:24:04.646Z,19.35
2022-08-11T05:27:12.851Z,18.68
2022-08-11T05:30:06.146Z,18.79
2022-08-11T05:33:01.383Z,18.94
2022-08-11T05:36:00.537Z,19.84
2022-08-11T05:38:51.716Z,19.28
2022-08-11T05:41:43.346Z,20.61
2022-08-11T05:44:35.520Z,20.76
2022-08-11T05:47:20.837Z,20.76
2022-08-11T05:50:09.112Z,19.52
2022-08-11T05:53:05.146Z,19.92
2022-08-11T05:56:03.093Z,20.84
2022-08-11T05:58:42.959Z,20.53
2022-08-11T06:01:12.975Z,20.62
2022-08-11T06:04:03.578Z,20.01
2022-08-11T06:06:31.147Z,20.46
2022-08-11T06:08:59.180Z,21.07
2022-08-11T06:11:43.779Z,20.61
2022-08-11T06:14:12.049Z,22.28
2022-08-11T06:19:07.061Z,22.68
2022-08-11T06:21:36.065Z,22.96
2022-08-11T06:24:12.533Z,23.23
2022-08-11T06:27:01.764Z,23.59
2022-08-11T06:29:38.230Z,24.41
2022-08-11T06:32:15.639Z,23.79
2022-08-11T06:35:03.960Z,23.57
2022-08-11T06:37:45.340Z,22.85
2022-08-11T06:40:25.691Z,24.81
2022-08-11T06:43:02.240Z,24.62
2022-08-11T06:45:48.560Z,24.93
2022-08-11T06:48:21.312Z,24.67
2022-08-11T06:51:14.260Z,24.73
2022-08-11T06:54:03.791Z,23.91
2022-08-11T06:57:26.321Z,24.38
2022-08-11T07:00:03.776Z,24.37
2022-08-11T07:02:48.500Z,25.41
2022-08-11T07:05:24.207Z,24.76
2022-08-11T07:08:46.487Z,24.77
2022-08-11T07:12:09.773Z,25.26
2022-08-11T07:15:00.366Z,26.25
2022-08-11T07:17:29.440Z,26.84
2022-08-11T07:20:18.086Z,27.08
2022-08-11T07:23:20.504Z,27.09
2022-08-11T07:26:11.232Z,27.92
2022-08-11T07:28:58.953Z,28.31
2022-08-11T07:31:29.203Z,27.34
2022-08-11T07:34:21.714Z,26.74
2022-08-11T07:37:00.146Z,27.27
2022-08-11T07:39:31.729Z,26.10
2022-08-11T07:42:00.179Z,26.50
2022-08-11T07:44:35.144Z,26.74
2022-08-11T07:47:21.666Z,27.55
2022-08-11T07:50:08.966Z,28.54
2022-08-11T07:52:38.108Z,27.69
2022-08-11T07:55:13.967Z,27.21
2022-08-11T07:58:15.932Z,28.44
2022-08-11T08:01:15.139Z,28.51
2022-08-11T08:04:06.719Z,28.14
2022-08-11T08:06:55.075Z,28.77
2022-08-11T08:09:40.919Z,29.64
2022-08-11T08:12:27.785Z,29.47
2022-08-11T08:15:15.248Z,29.80
2022-08-11T08:18:09.548Z,29.71
2022-08-11T08:20:47.273Z,28.31
2022-08-11T08:23:14.563Z,29.62
2022-08-11T08:25:43.391Z,30.51
2022-08-11T08:28:15.552Z,28.08
2022-08-11T08:30:56.135Z,28.47
2022-08-11T08:33:28.564Z,29.11
2022-08-11T08:36:16.847Z,28.93
2022-08-11T08:38:48.533Z,29.20
2022-08-11T08:41:29.104Z,29.55
2022-08-11T08:44:34.786Z,29.28
2022-08-11T08:46:59.146Z,30.03
2022-08-11T08:49:40.082Z,30.18
2022-08-11T08:52:26.273Z,30.16
2022-08-11T08:55:01.613Z,30.11
2022-08-11T08:57:32.027Z,30.17
2022-08-11T09:00:07.653Z,30.67
2022-08-11T09:02:36.504Z,29.75
2022-08-11T09:05:04.930Z,30.39
2022-08-11T09:07:39.585Z,30.76
2022-08-11T09:10:08.372Z,30.44
2022-08-11T09:12:38.833Z,29.54
2022-08-11T09:15:14.038Z,28.65
2022-08-11T09:17:49.215Z,28.30
2022-08-11T09:20:22.551Z,28.66
2022-08-11T09:24:06.459Z,28.58
2022-08-11T09:26:17.882Z,29.60
2022-08-11T09:28:46.286Z,30.29
2022-08-11T09:31:14.728Z,29.61
2022-08-11T09:33:43.785Z,30.40
2022-08-11T09:36:31.331Z,30.82
2022-08-11T09:39:18.776Z,30.35
2022-08-11T09:42:00.730Z,31.12
2022-08-11T09:44:49.517Z,30.91
2022-08-11T09:47:38.044Z,30.59
2022-08-11T09:50:06.083Z,30.91
2022-08-11T09:52:37.769Z,29.60
2022-08-11T09:55:10.967Z,28.89
2022-08-11T09:58:03.491Z,30.08
2022-08-11T10:00:32.789Z,30.43
2022-08-11T10:03:02.651Z,30.46
2022-08-11T10:05:48.142Z,31.34
2022-08-11T10:08:18.982Z,31.69
2022-08-11T10:10:47.837Z,31.29
2022-08-11T10:14:31.429Z,31.59
2022-08-11T10:16:15.690Z,29.66
2022-08-11T10:18:52.118Z,31.66
2022-08-11T10:21:25.078Z,31.82
2022-08-11T10:27:02.735Z,31.27
2022-08-11T10:29:55.281Z,31.65
2022-08-11T10:32:57.571Z,31.86
2022-08-11T10:35:28.223Z,30.70
2022-08-11T10:38:08.876Z,30.28
2022-08-11T10:40:40.728Z,31.14
2022-08-11T10:43:13.161Z,31.96
2022-08-11T10:46:00.709Z,31.92
2022-08-11T10:48:29.591Z,32.50
2022-08-11T10:51:15.288Z,31.90
2022-08-11T10:54:11.438Z,31.28
2022-08-11T10:56:58.707Z,31.34
2022-08-11T10:59:28.069Z,30.81
2022-08-11T11:01:55.396Z,31.69
2022-08-11T11:04:34.109Z,32.34
2022-08-11T11:07:16.493Z,32.16
2022-08-11T11:09:51.103Z,32.30
2022-08-11T11:12:46.318Z,32.64
2022-08-11T11:15:35.070Z,31.28
2022-08-11T11:18:12.004Z,30.18
2022-08-11T11:20:47.329Z,30.93
2022-08-11T11:23:23.106Z,31.23
2022-08-11T11:26:16.708Z,31.06
2022-08-11T11:29:16.167Z,30.67
2022-08-11T11:32:10.559Z,30.78
2022-08-11T11:35:03.021Z,31.06
2022-08-11T11:37:33.129Z,31.30
2022-08-11T11:40:01.306Z,31.43
2022-08-11T11:42:28.813Z,30.92
2022-08-11T11:44:56.771Z,30.70
2022-08-11T11:47:25.623Z,31.50
2022-08-11T11:49:54.237Z,31.49
2022-08-11T11:52:22.181Z,31.67
2022-08-11T11:54:53.330Z,32.18
2022-08-11T11:57:40.366Z,31.07
2022-08-11T12:00:33.817Z,31.31
2022-08-11T12:03:05.472Z,31.06
2022-08-11T12:05:34.547Z,32.22
2022-08-11T12:08:18.022Z,30.32
2022-08-11T12:11:11.850Z,29.92
2022-08-11T12:13:43.216Z,30.05
2022-08-11T12:16:33.793Z,29.60
2022-08-11T12:19:00.536Z,31.47
2022-08-11T12:21:28.883Z,32.16
2022-08-11T12:24:16.263Z,31.80
2022-08-11T12:27:02.793Z,31.81
2022-08-11T12:29:41.267Z,32.43
2022-08-11T12:32:10.830Z,31.03
2022-08-11T12:34:37.396Z,31.09
2022-08-11T12:37:13.545Z,31.75
2022-08-11T12:40:43.711Z,31.95
2022-08-11T12:43:22.172Z,32.35
2022-08-11T12:45:58.203Z,32.32
2022-08-11T12:48:58.679Z,31.46
2022-08-11T12:52:13.780Z,32.67
2022-08-11T12:54:57.790Z,32.41
2022-08-11T12:57:58.331Z,32.44
2022-08-11T13:00:45.219Z,33.07
2022-08-11T13:03:31.937Z,32.52
2022-08-11T13:06:03.787Z,30.75
2022-08-11T13:08:33.997Z,30.96
2022-08-11T13:11:20.994Z,31.30
2022-08-11T13:13:54.738Z,32.34
2022-08-11T13:16:26.393Z,31.47
2022-08-11T13:18:53.884Z,31.43
2022-08-11T13:21:21.826Z,32.44
2022-08-11T13:24:01.087Z,31.66
2022-08-11T13:26:43.302Z,29.97
2022-08-11T13:29:17.290Z,31.31
2022-08-11T13:31:44.807Z,32.01
2022-08-11T13:34:12.155Z,32.42
2022-08-11T13:36:39.107Z,32.50
2022-08-11T13:39:05.741Z,31.40
2022-08-11T13:41:39.359Z,31.96
2022-08-11T13:44:12.006Z,32.55
2022-08-11T13:46:39.824Z,32.38
2022-08-11T13:49:11.093Z,32.18
2022-08-11T13:51:40.090Z,31.87
2022-08-11T13:54:11.799Z,32.88
2022-08-11T13:56:42.317Z,33.02
2022-08-11T13:59:09.973Z,32.24
2022-08-11T14:02:20.532Z,31.42
2022-08-11T14:04:33.924Z,31.99
2022-08-11T14:07:05.264Z,32.34
2022-08-11T14:09:37.093Z,32.57
2022-08-11T14:12:28.442Z,32.40
2022-08-11T14:15:08.172Z,32.95
2022-08-11T14:17:48.843Z,33.23
2022-08-11T14:20:38.463Z,33.43
2022-08-11T14:23:05.902Z,33.40
2022-08-11T14:26:00.493Z,31.67
2022-08-11T14:28:30.943Z,32.46
2022-08-11T14:31:05.115Z,32.65
2022-08-11T14:34:00.346Z,31.41
2022-08-11T14:36:23.029Z,32.61
2022-08-11T14:38:50.104Z,31.46
2022-08-11T14:41:37.459Z,31.37
2022-08-11T14:44:43.955Z,32.54
2022-08-11T14:47:23.324Z,32.88
2022-08-11T14:50:09.885Z,32.90
2022-08-11T14:52:40.957Z,32.27
2022-08-11T14:55:27.267Z,31.78
2022-08-11T14:57:57.071Z,32.27
2022-08-11T15:00:24.953Z,33.33
2022-08-11T15:03:11.846Z,33.40
2022-08-11T15:05:57.598Z,31.27
2022-08-11T15:08:49.177Z,32.68
2022-08-11T15:11:39.128Z,32.23
2022-08-11T15:14:08.347Z,33.14
2022-08-11T15:16:55.689Z,32.04
2022-08-11T15:19:25.007Z,31.91
2022-08-11T15:22:10.014Z,32.89
2022-08-11T15:24:37.389Z,32.52
2022-08-11T15:27:32.232Z,32.13
2022-08-11T15:30:33.071Z,32.25
2022-08-11T15:33:24.358Z,32.06
2022-08-11T15:36:11.714Z,32.58
2022-08-11T15:39:09.087Z,33.06
2022-08-11T15:42:33.526Z,31.50
2022-08-11T15:45:22.726Z,32.27
2022-08-11T15:47:57.620Z,32.42
2022-08-11T15:50:38.770Z,32.26
2022-08-11T15:53:31.630Z,33.17
2022-08-11T15:56:00.111Z,33.15
2022-08-11T15:59:33.780Z,32.33
2022-08-11T16:01:58.951Z,32.80
2022-08-11T16:04:30.036Z,32.94
2022-08-11T16:07:11.561Z,31.70
2022-08-11T16:09:48.118Z,31.46
2022-08-11T16:12:23.057Z,32.30
2022-08-11T16:15:20.182Z,33.00
2022-08-11T16:17:52.563Z,31.45
2022-08-11T16:20:21.954Z,31.42
2022-08-11T16:22:57.142Z,31.69
2022-08-11T16:27:04.290Z,32.81
2022-08-11T16:28:21.898Z,32.33
2022-08-11T16:30:49.650Z,31.87
2022-08-11T16:33:49.030Z,31.83
2022-08-11T16:36:24.487Z,32.24
2022-08-11T16:38:52.327Z,32.80
2022-08-11T16:41:41.293Z,33.22
2022-08-11T16:44:37.017Z,33.16
2022-08-11T16:47:06.422Z,32.66
2022-08-11T16:49:43.614Z,31.38
2022-08-11T16:52:19.627Z,31.32
2022-08-11T16:54:47.645Z,31.61
2022-08-11T16:57:44.552Z,31.31
2022-08-11T17:00:15.277Z,31.54
2022-08-11T17:03:12.059Z,31.48
2022-08-11T17:06:10.010Z,31.85
2022-08-11T17:09:03.957Z,32.24
2022-08-11T17:11:55.323Z,32.70
2022-08-11T17:14:35.236Z,31.64
2022-08-11T17:17:05.015Z,32.17
2022-08-11T17:20:40.584Z,31.24
2022-08-11T17:22:41.874Z,31.80
2022-08-11T17:25:09.981Z,30.69
2022-08-11T17:27:38.965Z,31.86
2022-08-11T17:30:11.400Z,31.76
2022-08-11T17:33:07.915Z,31.02
2022-08-11T17:35:38.916Z,31.08
2022-08-11T17:38:17.635Z,30.62
2022-08-11T17:41:22.738Z,30.86
2022-08-11T17:44:10.330Z,30.71
2022-08-11T17:47:00.118Z,30.54
2022-08-11T17:49:37.132Z,30.38
2022-08-11T17:52:26.003Z,31.08
2022-08-11T17:55:13.371Z,30.52
2022-08-11T17:58:00.212Z,31.37
2022-08-11T18:00:26.971Z,31.40
2022-08-11T18:03:13.743Z,30.52
2022-08-11T18:05:44.457Z,30.84
2022-08-11T18:08:32.103Z,30.45
2022-08-11T18:12:06.426Z,30.66
2022-08-11T18:14:27.772Z,30.57
2022-08-11T18:17:13.634Z,30.21
2022-08-11T18:19:59.008Z,30.51
2022-08-11T18:22:48.450Z,30.44
2022-08-11T18:25:43.244Z,30.17
2022-08-11T18:28:33.504Z,30.02
2022-08-11T18:31:22.010Z,29.62
2022-08-11T18:34:11.011Z,29.80
2022-08-11T18:37:09.454Z,29.53
2022-08-11T18:40:11.230Z,30.38
2022-08-11T18:42:59.566Z,30.51
2022-08-11T18:45:46.072Z,30.11
2022-08-11T18:48:39.340Z,29.67
2022-08-11T18:51:30.467Z,29.01
2022-08-11T18:54:27.123Z,29.64
2022-08-11T18:57:14.966Z,29.73
2022-08-11T19:00:02.511Z,28.95
2022-08-11T19:02:50.514Z,29.04
2022-08-11T19:06:35.842Z,29.26
2022-08-11T19:08:50.156Z,29.66
2022-08-11T19:11:42.485Z,29.35
2022-08-11T19:14:30.198Z,30.01
2022-08-11T19:17:44.908Z,29.48
2022-08-11T19:20:27.362Z,28.93
2022-08-11T19:23:15.358Z,29.45
2022-08-11T19:26:03.324Z,30.16
2022-08-11T19:28:49.970Z,30.02
2022-08-11T19:31:36.631Z,30.00
2022-08-11T19:34:24.099Z,29.85
2022-08-11T19:37:11.913Z,29.67
2022-08-11T19:39:59.260Z,29.91
2022-08-11T19:42:46.234Z,30.05
2022-08-11T19:45:31.991Z,29.40
2022-08-11T19:48:32.750Z,29.27
2022-08-11T19:51:19.229Z,29.46
2022-08-11T19:54:07.970Z,29.69
2022-08-11T19:56:53.721Z,29.03
2022-08-11T19:59:40.964Z,28.59
2022-08-11T20:02:26.269Z,29.29
2022-08-11T20:05:11.840Z,29.02
2022-08-11T20:07:57.191Z,29.05
2022-08-11T20:10:45.067Z,28.55
2022-08-11T20:13:32.276Z,28.62
2022-08-11T20:16:18.677Z,28.64
2022-08-11T20:19:04.952Z,27.65
2022-08-11T20:21:50.852Z,28.40
2022-08-11T20:24:37.177Z,28.22
2022-08-11T20:27:24.461Z,28.38
2022-08-11T20:30:12.091Z,28.36
2022-08-11T20:32:59.611Z,28.04
2022-08-11T20:35:45.869Z,28.17
2022-08-11T20:38:33.650Z,28.19
2022-08-11T20:41:20.586Z,28.13
2022-08-11T20:44:09.691Z,28.11
2022-08-11T20:46:57.711Z,27.95
2022-08-11T20:49:51.348Z,27.63
2022-08-11T20:52:44.435Z,27.62
2022-08-11T20:55:51.491Z,27.50
2022-08-11T21:01:46.445Z,26.26
2022-08-11T21:04:33.294Z,25.98
2022-08-11T21:07:28.609Z,26.47
2022-08-11T21:10:22.898Z,26.49
2022-08-11T21:13:26.534Z,26.90
2022-08-11T21:16:26.614Z,27.40
2022-08-11T21:19:59.853Z,27.55
2022-08-11T21:22:59.101Z,27.35
2022-08-11T21:25:50.611Z,27.32
2022-08-11T21:28:37.432Z,27.29
2022-08-11T21:31:25.273Z,27.29
2022-08-11T21:34:11.716Z,27.17
2022-08-11T21:36:59.439Z,26.71
2022-08-11T21:39:45.781Z,27.03
2022-08-11T21:42:32.924Z,26.41
2022-08-11T21:45:20.307Z,25.30
2022-08-11T21:48:06.687Z,25.28
2022-08-11T21:50:51.978Z,24.64
2022-08-11T21:53:38.236Z,25.34
2022-08-11T21:56:27.287Z,25.96
2022-08-11T21:59:14.703Z,25.38
2022-08-11T22:02:00.684Z,24.46
2022-08-11T22:04:46.298Z,25.62
2022-08-11T22:07:32.036Z,25.32
2022-08-11T22:10:40.138Z,25.31
2022-08-11T22:13:28.867Z,24.80
2022-08-11T22:16:14.231Z,24.73
2022-08-11T22:18:59.562Z,24.33
2022-08-11T22:22:02.742Z,24.33
2022-08-11T22:24:52.284Z,24.23
2022-08-11T22:27:39.626Z,24.41
2022-08-11T22:30:27.118Z,24.23
2022-08-11T22:33:15.175Z,24.46
2022-08-11T22:36:02.383Z,24.70
2022-08-11T22:38:49.296Z,24.60
2022-08-11T22:41:34.519Z,24.67
2022-08-11T22:44:19.864Z,25.18
2022-08-11T22:47:05.272Z,25.68
2022-08-11T22:49:57.609Z,25.06
2022-08-11T22:52:45.213Z,24.69
2022-08-11T22:55:31.564Z,25.64
2022-08-11T22:58:17.480Z,25.53
2022-08-11T23:01:02.680Z,25.54
2022-08-11T23:03:48.307Z,25.67
2022-08-11T23:06:34.201Z,25.71
2022-08-11T23:09:20.031Z,25.13
2022-08-11T23:12:10.090Z,25.60
2022-08-11T23:14:57.568Z,25.44
2022-08-11T23:17:43.949Z,25.42
2022-08-11T23:20:34.531Z,25.49
2022-08-11T23:23:28.012Z,25.33
2022-08-11T23:26:14.525Z,24.98
2022-08-11T23:29:05.955Z,25.20
2022-08-11T23:31:54.180Z,24.56
2022-08-11T23:35:04.364Z,24.28
2022-08-11T23:37:48.540Z,24.25
2022-08-11T23:40:33.870Z,24.32
2022-08-11T23:43:19.851Z,24.69
2022-08-11T23:46:04.510Z,24.22
2022-08-11T23:48:50.501Z,23.82
2022-08-11T23:51:40.825Z,23.02
2022-08-11T23:54:27.777Z,23.43
2022-08-11T23:57:13.841Z,23.88
2022-08-11T23:59:59.390Z,23.87
